createdAt,value
2023-01-30T00:00:44.783Z,-5.34
2023-01-30T00:03:34.376Z,-5.39
2023-01-30T00:06:23.015Z,-5.41
2023-01-30T00:09:15.822Z,-5.34
2023-01-30T00:12:03.310Z,-5.29
2023-01-30T00:14:50.898Z,-5.28
2023-01-30T00:17:38.487Z,-5.30
2023-01-30T00:20:27.429Z,-5.22
2023-01-30T00:23:15.484Z,-5.31
2023-01-30T00:26:03.231Z,-5.42
2023-01-30T00:28:51.044Z,-5.52
2023-01-30T00:31:38.509Z,-5.50
2023-01-30T00:34:26.103Z,-5.54
2023-01-30T00:37:14.883Z,-5.55
2023-01-30T00:40:02.578Z,-5.53
2023-01-30T00:43:07.758Z,-5.50
2023-01-30T00:46:13.908Z,-5.45
2023-01-30T00:49:01.497Z,-5.32
2023-01-30T00:51:49.371Z,-5.38
2023-01-30T00:54:38.355Z,-5.28
2023-01-30T00:57:25.876Z,-5.20
2023-01-30T01:00:16.949Z,-5.12
2023-01-30T01:03:04.883Z,-5.05
2023-01-30T01:05:52.568Z,-4.86
2023-01-30T01:08:40.055Z,-4.73
2023-01-30T01:11:28.802Z,-4.63
2023-01-30T01:14:16.383Z,-4.43
2023-01-30T01:17:03.863Z,-4.36
2023-01-30T01:19:51.230Z,-4.18
2023-01-30T01:22:38.690Z,-3.99
2023-01-30T01:25:27.188Z,-3.94
2023-01-30T01:28:18.339Z,-3.78
2023-01-30T01:31:11.763Z,-3.78
2023-01-30T01:33:59.289Z,-3.51
2023-01-30T01:36:53.765Z,-3.45
2023-01-30T01:39:59.818Z,-2.74
2023-01-30T01:42:47.553Z,-2.98
2023-01-30T01:45:37.106Z,-2.85
2023-01-30T01:48:31.577Z,-2.44
2023-01-30T01:51:27.826Z,-2.52
2023-01-30T01:54:22.408Z,-2.59
2023-01-30T01:57:19.238Z,-2.27
2023-01-30T02:00:12.784Z,-2.26
2023-01-30T02:03:07.265Z,-2.14
2023-01-30T02:06:01.133Z,-2.38
2023-01-30T02:08:52.309Z,-2.27
2023-01-30T02:11:49.058Z,-2.08
2023-01-30T02:14:38.679Z,-1.92
2023-01-30T02:17:26.729Z,-1.91
2023-01-30T02:20:28.965Z,-1.72
2023-01-30T02:24:08.710Z,-1.75
2023-01-30T02:27:31.887Z,-1.76
2023-01-30T02:31:12.866Z,-1.56
2023-01-30T02:34:20.640Z,-1.64
2023-01-30T02:37:35.841Z,-1.74
2023-01-30T02:40:49.204Z,-1.81
2023-01-30T02:43:48.253Z,-1.77
2023-01-30T02:46:49.027Z,-1.76
2023-01-30T02:49:43.422Z,-1.78
2023-01-30T02:52:32.246Z,-1.63
2023-01-30T02:55:23.315Z,-1.68
2023-01-30T02:58:12.465Z,-1.52
2023-01-30T03:01:50.379Z,-1.47
2023-01-30T03:05:03.096Z,-1.50
2023-01-30T03:08:01.847Z,-1.37
2023-01-30T03:10:59.561Z,-1.51
2023-01-30T03:13:57.142Z,-1.34
2023-01-30T03:16:58.750Z,-1.21
2023-01-30T03:19:52.387Z,-1.25
2023-01-30T03:22:40.155Z,-1.19
2023-01-30T03:25:28.620Z,-1.14
2023-01-30T03:28:21.446Z,-1.24
2023-01-30T03:31:09.825Z,-1.16
2023-01-30T03:33:58.936Z,-1.04
2023-01-30T03:36:48.307Z,-1.07
2023-01-30T03:39:38.420Z,-1.06
2023-01-30T03:42:26.673Z,-0.97
2023-01-30T03:45:17.518Z,-1.02
2023-01-30T03:48:05.566Z,-1.11
2023-01-30T03:50:54.456Z,-1.01
2023-01-30T03:53:43.706Z,-1.05
2023-01-30T03:56:32.510Z,-0.87
2023-01-30T03:59:25.341Z,-0.81
2023-01-30T04:02:23.189Z,-0.91
2023-01-30T04:05:12.286Z,-0.84
2023-01-30T04:08:02.920Z,-0.78
2023-01-30T04:10:50.898Z,-0.77
2023-01-30T04:13:42.627Z,-0.73
2023-01-30T04:16:30.411Z,-0.82
2023-01-30T04:19:17.880Z,-0.67
2023-01-30T04:22:05.705Z,-0.80
2023-01-30T04:24:59.703Z,-0.77
2023-01-30T04:27:47.430Z,-0.77
2023-01-30T04:30:34.799Z,-0.74
2023-01-30T04:33:22.540Z,-0.70
2023-01-30T04:36:12.045Z,-0.69
2023-01-30T04:39:01.791Z,-0.63
2023-01-30T04:41:51.129Z,-0.64
2023-01-30T04:44:38.979Z,-0.57
2023-01-30T04:47:26.476Z,-0.56
2023-01-30T04:50:14.036Z,-0.59
2023-01-30T04:53:07.463Z,-0.39
2023-01-30T04:55:55.464Z,-0.29
2023-01-30T04:58:44.373Z,-0.43
2023-01-30T05:01:42.764Z,-0.36
2023-01-30T05:04:30.256Z,-0.37
2023-01-30T05:07:19.466Z,-0.37
2023-01-30T05:10:09.127Z,-0.43
2023-01-30T05:12:56.809Z,-0.39
2023-01-30T05:15:46.704Z,-0.41
2023-01-30T05:18:35.046Z,-0.37
2023-01-30T05:21:27.847Z,-0.34
2023-01-30T05:24:15.762Z,-0.25
2023-01-30T05:27:03.281Z,-0.24
2023-01-30T05:29:51.164Z,-0.32
2023-01-30T05:32:39.915Z,-0.30
2023-01-30T05:35:27.667Z,-0.34
2023-01-30T05:38:15.509Z,-0.33
2023-01-30T05:41:05.864Z,-0.35
2023-01-30T05:43:53.245Z,-0.31
2023-01-30T05:46:41.203Z,-0.25
2023-01-30T05:49:30.280Z,-0.27
2023-01-30T05:52:18.065Z,-0.26
2023-01-30T05:55:06.317Z,-0.28
2023-01-30T05:57:53.803Z,-0.24
2023-01-30T06:00:41.313Z,-0.29
2023-01-30T06:03:28.937Z,-0.29
2023-01-30T06:06:18.092Z,-0.25
2023-01-30T06:09:05.883Z,-0.28
2023-01-30T06:11:55.344Z,-0.25
2023-01-30T06:14:42.825Z,-0.27
2023-01-30T06:17:30.168Z,-0.25
2023-01-30T06:20:18.149Z,-0.21
2023-01-30T06:23:16.610Z,-0.21
2023-01-30T06:26:06.228Z,-0.15
2023-01-30T06:28:55.652Z,-0.18
2023-01-30T06:31:43.336Z,-0.18
2023-01-30T06:34:31.175Z,-0.18
2023-01-30T06:37:18.558Z,-0.11
2023-01-30T06:40:09.116Z,-0.14
2023-01-30T06:42:57.045Z,-0.06
2023-01-30T06:45:45.108Z,-0.10
2023-01-30T06:48:33.054Z,-0.07
2023-01-30T06:51:22.316Z,-0.08
2023-01-30T06:54:09.932Z,-0.02
2023-01-30T06:57:01.715Z,-0.02
2023-01-30T06:59:49.335Z,0.00
2023-01-30T07:02:36.897Z,0.01
2023-01-30T07:05:24.761Z,0.03
2023-01-30T07:08:13.481Z,0.00
2023-01-30T07:11:01.352Z,0.07
2023-01-30T07:13:50.009Z,0.08
2023-01-30T07:16:37.622Z,0.10
2023-01-30T07:19:25.055Z,0.08
2023-01-30T07:22:13.072Z,0.07
2023-01-30T07:25:01.057Z,0.08
2023-01-30T07:27:52.885Z,0.12
2023-01-30T07:30:42.013Z,0.11
2023-01-30T07:33:32.958Z,0.08
2023-01-30T07:36:21.746Z,0.10
2023-01-30T07:39:09.646Z,0.12
2023-01-30T07:42:02.378Z,0.14
2023-01-30T07:44:50.119Z,0.24
2023-01-30T07:47:38.879Z,0.21
2023-01-30T07:50:26.961Z,0.22
2023-01-30T07:53:18.490Z,0.32
2023-01-30T07:56:09.226Z,0.36
2023-01-30T07:58:57.807Z,0.37
2023-01-30T08:01:45.673Z,0.38
2023-01-30T08:04:34.747Z,0.39
2023-01-30T08:07:23.444Z,0.44
2023-01-30T08:10:12.537Z,0.44
2023-01-30T08:13:00.413Z,0.53
2023-01-30T08:15:47.968Z,0.53
2023-01-30T08:18:38.939Z,0.53
2023-01-30T08:21:28.172Z,0.57
2023-01-30T08:24:16.192Z,0.59
2023-01-30T08:27:03.769Z,0.60
2023-01-30T08:29:52.006Z,0.58
2023-01-30T08:32:39.619Z,0.57
2023-01-30T08:35:33.142Z,0.64
2023-01-30T08:38:23.919Z,0.64
2023-01-30T08:41:11.933Z,0.62
2023-01-30T08:44:05.775Z,0.63
2023-01-30T08:46:58.608Z,0.67
2023-01-30T08:49:46.440Z,0.65
2023-01-30T08:52:34.590Z,0.66
2023-01-30T08:55:23.783Z,0.67
2023-01-30T08:58:11.528Z,0.69
2023-01-30T09:01:01.661Z,0.68
2023-01-30T09:03:52.449Z,0.69
2023-01-30T09:06:43.191Z,0.68
2023-01-30T09:09:31.276Z,0.67
2023-01-30T09:12:22.037Z,0.68
2023-01-30T09:15:11.837Z,0.67
2023-01-30T09:17:59.752Z,0.65
2023-01-30T09:20:47.596Z,0.68
2023-01-30T09:23:35.765Z,0.69
2023-01-30T09:26:23.526Z,0.70
2023-01-30T09:29:13.229Z,0.72
2023-01-30T09:32:03.448Z,0.73
2023-01-30T09:34:50.765Z,0.75
2023-01-30T09:37:38.608Z,0.77
2023-01-30T09:40:30.238Z,0.80
2023-01-30T09:43:41.386Z,0.81
2023-01-30T09:46:43.014Z,0.87
2023-01-30T09:49:46.822Z,0.88
2023-01-30T09:52:52.661Z,0.90
2023-01-30T09:55:42.728Z,1.00
2023-01-30T09:58:46.153Z,1.05
2023-01-30T10:01:49.553Z,1.05
2023-01-30T10:05:00.834Z,1.09
2023-01-30T10:08:07.318Z,1.10
2023-01-30T10:11:10.352Z,1.16
2023-01-30T10:14:23.114Z,1.23
2023-01-30T10:17:35.269Z,1.26
2023-01-30T10:20:42.439Z,1.30
2023-01-30T10:24:09.493Z,1.37
2023-01-30T10:26:58.375Z,1.38
2023-01-30T10:29:54.082Z,1.41
2023-01-30T10:32:49.673Z,1.43
2023-01-30T10:35:40.337Z,1.47
2023-01-30T10:38:38.449Z,1.49
2023-01-30T10:41:33.732Z,1.51
2023-01-30T10:44:25.253Z,1.55
2023-01-30T10:47:47.146Z,1.57
2023-01-30T10:50:52.078Z,1.58
2023-01-30T10:53:49.192Z,1.59
2023-01-30T10:56:48.628Z,1.58
2023-01-30T10:59:53.948Z,1.59
2023-01-30T11:03:04.292Z,1.64
2023-01-30T11:05:59.592Z,1.65
2023-01-30T11:08:47.583Z,1.68
2023-01-30T11:11:48.575Z,1.68
2023-01-30T11:14:59.761Z,1.68
2023-01-30T11:17:47.672Z,1.70
2023-01-30T11:20:42.475Z,1.69
2023-01-30T11:23:42.764Z,1.71
2023-01-30T11:26:45.503Z,1.73
2023-01-30T11:29:36.019Z,1.74
2023-01-30T11:32:28.508Z,1.76
2023-01-30T11:35:27.325Z,1.76
2023-01-30T11:38:24.679Z,1.75
2023-01-30T11:41:23.111Z,1.77
2023-01-30T11:44:12.502Z,1.78
2023-01-30T11:47:02.715Z,1.79
2023-01-30T11:50:08.110Z,1.78
2023-01-30T11:53:07.374Z,1.77
2023-01-30T11:56:06.222Z,1.78
2023-01-30T11:59:01.857Z,1.79
2023-01-30T12:01:50.306Z,1.77
2023-01-30T12:04:46.100Z,1.76
2023-01-30T12:07:37.891Z,1.79
2023-01-30T12:10:32.793Z,1.82
2023-01-30T12:13:28.881Z,1.85
2023-01-30T12:16:26.264Z,1.90
2023-01-30T12:19:29.183Z,1.92
2023-01-30T12:22:37.139Z,1.94
2023-01-30T12:25:30.324Z,1.94
2023-01-30T12:28:31.657Z,1.95
2023-01-30T12:31:28.214Z,1.96
2023-01-30T12:34:15.719Z,1.95
2023-01-30T12:37:34.137Z,1.99
2023-01-30T12:40:43.779Z,1.99
2023-01-30T12:44:20.153Z,2.03
2023-01-30T12:47:32.191Z,2.09
2023-01-30T12:50:37.334Z,2.15
2023-01-30T12:53:48.783Z,2.20
2023-01-30T12:57:19.943Z,2.27
2023-01-30T13:00:33.508Z,2.31
2023-01-30T13:03:31.946Z,2.37
2023-01-30T13:06:40.652Z,2.43
2023-01-30T13:09:55.780Z,2.48
2023-01-30T13:12:56.299Z,2.57
2023-01-30T13:15:59.220Z,2.64
2023-01-30T13:18:55.215Z,2.68
2023-01-30T13:21:50.818Z,2.73
2023-01-30T13:24:55.959Z,2.77
2023-01-30T13:27:54.953Z,2.77
2023-01-30T13:30:46.603Z,2.81
2023-01-30T13:33:37.865Z,2.80
2023-01-30T13:36:38.106Z,2.80
2023-01-30T13:39:34.568Z,2.79
2023-01-30T13:42:34.015Z,2.81
2023-01-30T13:45:27.354Z,2.85
2023-01-30T13:48:36.135Z,2.85
2023-01-30T13:51:48.438Z,2.85
2023-01-30T13:54:57.834Z,2.84
2023-01-30T13:57:52.057Z,2.82
2023-01-30T14:00:40.494Z,2.79
2023-01-30T14:03:31.911Z,2.81
2023-01-30T14:06:37.058Z,2.78
2023-01-30T14:09:35.347Z,2.79
2023-01-30T14:12:28.562Z,2.80
2023-01-30T14:15:31.742Z,2.81
2023-01-30T14:18:26.320Z,2.83
2023-01-30T14:21:18.033Z,2.90
2023-01-30T14:24:08.055Z,2.97
2023-01-30T14:27:27.545Z,3.01
2023-01-30T14:30:38.564Z,3.03
2023-01-30T14:33:48.520Z,3.07
2023-01-30T14:36:37.950Z,3.08
2023-01-30T14:39:40.325Z,3.08
2023-01-30T14:42:32.272Z,3.07
2023-01-30T14:45:48.097Z,3.08
2023-01-30T14:48:45.280Z,3.06
2023-01-30T14:51:38.162Z,3.06
2023-01-30T14:54:42.771Z,3.06
2023-01-30T14:57:34.667Z,3.03
2023-01-30T15:00:30.263Z,3.01
2023-01-30T15:03:22.204Z,3.02
2023-01-30T15:06:11.258Z,2.99
2023-01-30T15:08:58.921Z,2.98
2023-01-30T15:12:02.556Z,2.96
2023-01-30T15:15:06.121Z,2.96
2023-01-30T15:18:30.543Z,2.95
2023-01-30T15:21:42.594Z,2.96
2023-01-30T15:25:08.942Z,2.92
2023-01-30T15:28:13.239Z,2.92
2023-01-30T15:31:15.236Z,2.91
2023-01-30T15:34:03.625Z,2.88
2023-01-30T15:36:51.529Z,2.87
2023-01-30T15:39:39.198Z,2.86
2023-01-30T15:42:26.834Z,2.84
2023-01-30T15:45:21.040Z,2.81
2023-01-30T15:48:50.439Z,2.79
2023-01-30T15:51:38.687Z,2.78
2023-01-30T15:54:26.965Z,2.79
2023-01-30T15:57:21.913Z,2.76
2023-01-30T16:00:26.085Z,2.77
2023-01-30T16:03:21.220Z,2.75
2023-01-30T16:06:25.674Z,2.72
2023-01-30T16:09:23.624Z,2.71
2023-01-30T16:12:25.945Z,2.70
2023-01-30T16:15:29.110Z,2.68
2023-01-30T16:18:26.735Z,2.66
2023-01-30T16:21:23.488Z,2.65
2023-01-30T16:24:21.210Z,2.63
2023-01-30T16:27:19.966Z,2.61
2023-01-30T16:30:10.472Z,2.60
2023-01-30T16:32:59.034Z,2.59
2023-01-30T16:35:47.085Z,2.58
2023-01-30T16:38:44.482Z,2.56
2023-01-30T16:41:36.537Z,2.56
2023-01-30T16:44:26.192Z,2.53
2023-01-30T16:47:25.948Z,2.54
2023-01-30T16:50:20.761Z,2.52
2023-01-30T16:53:16.769Z,2.51
2023-01-30T16:56:11.140Z,2.51
2023-01-30T16:59:02.401Z,2.51
2023-01-30T17:01:54.019Z,2.50
2023-01-30T17:04:43.219Z,2.49
2023-01-30T17:07:38.702Z,2.49
2023-01-30T17:10:52.579Z,2.50
2023-01-30T17:13:43.536Z,2.50
2023-01-30T17:16:35.454Z,2.50
2023-01-30T17:19:23.027Z,2.52
2023-01-30T17:22:20.607Z,2.51
2023-01-30T17:25:23.130Z,2.51
2023-01-30T17:28:21.135Z,2.49
2023-01-30T17:31:12.889Z,2.49
2023-01-30T17:34:00.576Z,2.50
2023-01-30T17:36:48.572Z,2.48
2023-01-30T17:39:35.999Z,2.50
2023-01-30T17:42:27.633Z,2.51
2023-01-30T17:45:15.740Z,2.49
2023-01-30T17:48:05.025Z,2.51
2023-01-30T17:50:52.635Z,2.48
2023-01-30T17:53:40.474Z,2.49
2023-01-30T17:56:37.878Z,2.48
2023-01-30T17:59:28.349Z,2.50
2023-01-30T18:02:15.958Z,2.49
2023-01-30T18:05:05.362Z,2.50
2023-01-30T18:07:53.276Z,2.49
2023-01-30T18:10:40.721Z,2.48
2023-01-30T18:13:28.369Z,2.49
2023-01-30T18:16:22.600Z,2.49
2023-01-30T18:19:14.465Z,2.50
2023-01-30T18:22:04.073Z,2.52
2023-01-30T18:24:52.474Z,2.50
2023-01-30T18:27:40.421Z,2.51
2023-01-30T18:30:27.825Z,2.50
2023-01-30T18:33:15.392Z,2.51
2023-01-30T18:36:07.571Z,2.52
2023-01-30T18:38:57.308Z,2.55
2023-01-30T18:41:44.763Z,2.51
2023-01-30T18:44:32.213Z,2.52
2023-01-30T18:47:20.000Z,2.54
2023-01-30T18:50:14.153Z,2.52
2023-01-30T18:53:04.802Z,2.51
2023-01-30T18:55:53.868Z,2.53
2023-01-30T18:58:42.295Z,2.57
2023-01-30T19:01:34.417Z,2.57
2023-01-30T19:04:22.119Z,2.55
2023-01-30T19:07:11.530Z,2.56
2023-01-30T19:10:01.680Z,2.56
2023-01-30T19:13:08.563Z,2.58
2023-01-30T19:16:00.307Z,2.58
2023-01-30T19:18:48.349Z,2.55
2023-01-30T19:21:37.015Z,2.54
2023-01-30T19:24:25.131Z,2.56
2023-01-30T19:27:13.777Z,2.58
2023-01-30T19:30:02.696Z,2.52
2023-01-30T19:32:51.975Z,2.54
2023-01-30T19:35:42.236Z,2.54
2023-01-30T19:38:29.969Z,2.52
2023-01-30T19:41:20.983Z,2.50
2023-01-30T19:44:09.823Z,2.49
2023-01-30T19:46:58.912Z,2.47
2023-01-30T19:49:46.672Z,2.46
2023-01-30T19:52:34.098Z,2.47
2023-01-30T19:55:21.472Z,2.45
2023-01-30T19:58:09.291Z,2.47
2023-01-30T20:01:05.573Z,2.42
2023-01-30T20:03:55.248Z,2.43
2023-01-30T20:06:49.750Z,2.43
2023-01-30T20:09:40.369Z,2.44
2023-01-30T20:12:28.099Z,2.45
2023-01-30T20:15:21.414Z,2.43
2023-01-30T20:18:12.679Z,2.42
2023-01-30T20:21:09.541Z,2.41
2023-01-30T20:23:59.919Z,2.43
2023-01-30T20:26:48.962Z,2.41
2023-01-30T20:29:37.603Z,2.45
2023-01-30T20:32:26.279Z,2.46
2023-01-30T20:35:15.729Z,2.45
2023-01-30T20:38:09.682Z,2.47
2023-01-30T20:41:04.173Z,2.48
2023-01-30T20:43:57.429Z,2.48
2023-01-30T20:46:47.407Z,2.49
2023-01-30T20:49:36.112Z,2.51
2023-01-30T20:52:24.493Z,2.54
2023-01-30T20:55:14.742Z,2.54
2023-01-30T20:58:03.513Z,2.54
2023-01-30T21:00:52.564Z,2.56
2023-01-30T21:03:41.581Z,2.55
2023-01-30T21:06:37.051Z,2.55
2023-01-30T21:09:32.107Z,2.54
2023-01-30T21:12:23.752Z,2.53
2023-01-30T21:15:12.383Z,2.54
2023-01-30T21:18:01.646Z,2.54
2023-01-30T21:20:51.208Z,2.54
2023-01-30T21:23:43.149Z,2.53
2023-01-30T21:26:33.708Z,2.55
2023-01-30T21:29:26.768Z,2.55
2023-01-30T21:32:14.676Z,2.53
2023-01-30T21:35:03.574Z,2.51
2023-01-30T21:38:09.263Z,2.50
2023-01-30T21:41:11.523Z,2.54
2023-01-30T21:44:02.228Z,2.51
2023-01-30T21:46:51.638Z,2.51
2023-01-30T21:49:40.601Z,2.52
2023-01-30T21:52:29.526Z,2.49
2023-01-30T21:55:18.730Z,2.54
2023-01-30T21:58:07.675Z,2.50
2023-01-30T22:00:55.332Z,2.52
2023-01-30T22:03:45.638Z,2.51
2023-01-30T22:06:34.204Z,2.48
2023-01-30T22:09:21.642Z,2.48
2023-01-30T22:12:09.668Z,2.48
2023-01-30T22:14:59.192Z,2.49
2023-01-30T22:17:47.854Z,2.50
2023-01-30T22:20:37.388Z,2.50
2023-01-30T22:23:25.012Z,2.48
2023-01-30T22:26:16.209Z,2.51
2023-01-30T22:29:06.007Z,2.53
2023-01-30T22:31:54.242Z,2.53
2023-01-30T22:34:41.580Z,2.51
2023-01-30T22:37:30.675Z,2.52
2023-01-30T22:40:18.617Z,2.52
2023-01-30T22:43:06.096Z,2.53
2023-01-30T22:46:00.568Z,2.50
2023-01-30T22:48:49.393Z,2.49
2023-01-30T22:51:39.689Z,2.50
2023-01-30T22:54:29.212Z,2.51
2023-01-30T22:57:17.359Z,2.53
2023-01-30T23:00:07.082Z,2.52
2023-01-30T23:02:56.702Z,2.57
2023-01-30T23:05:44.683Z,2.56
2023-01-30T23:08:33.808Z,2.53
2023-01-30T23:11:26.609Z,2.59
2023-01-30T23:14:16.578Z,2.58
2023-01-30T23:17:25.362Z,2.60
2023-01-30T23:20:13.313Z,2.59
2023-01-30T23:23:03.126Z,2.59
2023-01-30T23:25:51.141Z,2.59
2023-01-30T23:28:41.249Z,2.59
2023-01-30T23:31:30.478Z,2.57
2023-01-30T23:34:20.303Z,2.56
2023-01-30T23:37:08.910Z,2.56
2023-01-30T23:39:57.581Z,2.54
2023-01-30T23:42:45.878Z,2.54
2023-01-30T23:45:38.117Z,2.51
2023-01-30T23:48:26.979Z,2.50
2023-01-30T23:51:17.135Z,2.50
2023-01-30T23:54:05.602Z,2.45
2023-01-30T23:56:55.430Z,2.43
2023-01-30T23:59:43.511Z,2.42
